VTSS/HDY METAR and TAF weather

Enter ICAO airport designator
Station Type Date Time Source
VTSS METAR 2021/05/15 01:00 UTC NOAA

VTSS 150100Z 24002KT 9999 FEW020 27/27 Q1008 NOSIG


Station Type Date Time Source
VTSS Decoded METAR 2021/05/15 01:00 UTC NOAA

Hat Yai, Thailand (VTSS) 06-55N 100-26E 35M
May 14, 2021 - 09:00 PM EDT / 2021.05.15 0100 UTC
Wind: from the WSW (240 degrees) at 2 MPH (2 KT):0
Visibility: greater than 7 mile(s):0
Sky conditions: mostly clear
Temperature: 80 F (27 C)
Dew Point: 80 F (27 C)
Relative Humidity: 100%
Pressure (altimeter): 29.77 in. Hg (1008 hPa)
ob: VTSS 150100Z 24002KT 9999 FEW020 27/27 Q1008 NOSIG
cycle: 1

Station Type Date Time Source
VTSS TAF 2021/05/14 18:36 UTC NOAA

TAF VTSS 141700Z 1418/1518 24005KT 9999 FEW020 SCT100
TEMPO 1505/1513 VRB10G20KT 4000 TSRA FEW016CB SCT018 BKN100

Example: see airport list